Time;durP1;ratioP1;P1;durP2;ratioP2;P2;SDS_P1;SDS_P2;PMS_P1;PMS_P2;Temp;Humidity;BMP_temperature;BMP_pressure;BME280_temperature;BME280_humidity;BME280_pressure;Samples;Min_cycle;Max_cycle;Signal;HPM_P1;HPM_P2
2022/03/25 00:00:28;;;;;;;32.97;18.60;;;8.30;73.00;;;;;;4966243;28;20047;-73
2022/03/25 00:02:55;;;;;;;29.85;16.30;;;8.20;73.50;;;;;;4946849;29;20031;-73
2022/03/25 00:05:21;;;;;;;27.70;16.27;;;8.20;72.90;;;;;;4933864;29;20054;-73
2022/03/25 00:07:48;;;;;;;30.05;16.95;;;8.20;72.90;;;;;;4949685;29;20036;-73
2022/03/25 00:10:15;;;;;;;30.38;17.40;;;8.20;72.90;;;;;;4933222;29;20034;-73
2022/03/25 00:12:41;;;;;;;32.22;17.90;;;8.10;72.90;;;;;;4952453;28;20043;-73
2022/03/25 00:15:08;;;;;;;35.40;20.98;;;8.10;73.20;;;;;;4952608;29;20042;-73
2022/03/25 00:17:34;;;;;;;33.28;18.50;;;8.00;73.20;;;;;;4952557;29;20058;-73
2022/03/25 00:20:01;;;;;;;33.20;18.42;;;8.00;73.40;;;;;;4953335;29;20050;-74
2022/03/25 00:22:27;;;;;;;29.45;17.52;;;7.90;73.40;;;;;;4964635;28;20495;-73
2022/03/25 00:24:54;;;;;;;38.13;20.40;;;7.80;73.60;;;;;;4950564;29;20031;-73
2022/03/25 00:27:20;;;;;;;39.92;21.77;;;7.80;73.70;;;;;;4948185;28;20605;-74
2022/03/25 00:29:47;;;;;;;32.55;19.85;;;7.70;74.00;;;;;;4953136;29;20054;-74
2022/03/25 00:32:15;;;;;;;32.00;19.23;;;7.70;73.90;;;;;;4952333;29;20035;-73
2022/03/25 00:34:43;;;;;;;36.63;21.73;;;7.60;73.90;;;;;;4952548;29;20117;-73
2022/03/25 00:37:10;;;;;;;35.08;19.60;;;7.60;74.20;;;;;;4931480;29;20066;-73
2022/03/25 00:39:37;;;;;;;36.30;20.30;;;7.60;74.20;;;;;;4949652;28;20046;-73
2022/03/25 00:42:03;;;;;;;43.40;24.17;;;7.60;74.40;;;;;;4951706;28;20047;-73
2022/03/25 00:44:31;;;;;;;46.60;24.85;;;7.50;74.50;;;;;;4948086;28;20035;-74
2022/03/25 00:46:58;;;;;;;31.92;18.80;;;7.50;74.70;;;;;;4948095;29;20039;-74
2022/03/25 00:49:24;;;;;;;43.38;24.85;;;7.50;74.70;;;;;;4950258;29;20039;-74
2022/03/25 00:51:51;;;;;;;38.97;22.67;;;7.50;74.80;;;;;;4962928;28;20031;-73
2022/03/25 00:54:17;;;;;;;42.47;24.80;;;7.50;74.80;;;;;;4953034;28;20060;-74
2022/03/25 00:56:46;;;;;;;43.78;25.55;;;7.50;75.00;;;;;;4956670;28;20034;-74
2022/03/25 00:59:13;;;;;;;38.72;23.65;;;7.40;75.20;;;;;;4944425;28;20042;-74
2022/03/25 01:01:42;;;;;;;50.67;28.70;;;7.40;75.30;;;;;;4927624;28;20031;-74
2022/03/25 01:04:08;;;;;;;46.40;27.52;;;7.30;76.30;;;;;;4953519;28;20054;-74
2022/03/25 01:06:35;;;;;;;52.38;29.92;;;7.30;76.20;;;;;;4951048;28;20039;-74
2022/03/25 01:09:03;;;;;;;47.15;26.92;;;7.30;76.60;;;;;;4937195;28;20047;-74
2022/03/25 01:11:30;;;;;;;47.33;28.20;;;7.30;76.40;;;;;;4943535;28;20045;-74
2022/03/25 01:13:58;;;;;;;51.15;29.83;;;7.30;76.70;;;;;;4940582;28;20370;-74
2022/03/25 01:16:25;;;;;;;50.58;29.85;;;7.30;76.90;;;;;;4926830;28;20058;-74
2022/03/25 01:18:51;;;;;;;47.95;27.17;;;7.20;77.10;;;;;;4943118;28;20038;-74
2022/03/25 01:21:18;;;;;;;50.15;30.80;;;7.20;77.00;;;;;;4950253;28;20028;-74
2022/03/25 01:23:45;;;;;;;48.22;27.83;;;7.20;77.60;;;;;;4927031;28;20040;-74
2022/03/25 01:26:13;;;;;;;53.08;30.45;;;7.20;77.40;;;;;;4937804;28;20039;-74
2022/03/25 01:28:41;;;;;;;45.03;26.13;;;7.20;77.70;;;;;;4940430;28;20490;-74
2022/03/25 01:31:13;;;;;;;46.13;27.55;;;7.10;77.60;;;;;;4944671;28;20043;-74
2022/03/25 01:33:40;;;;;;;40.85;25.08;;;7.10;77.70;;;;;;4955263;28;20367;-74
2022/03/25 01:36:09;;;;;;;44.50;27.67;;;7.00;77.80;;;;;;4956586;28;20050;-74
2022/03/25 01:38:35;;;;;;;45.33;25.10;;;7.00;77.90;;;;;;4948310;28;20039;-74
2022/03/25 01:41:03;;;;;;;42.30;24.17;;;6.90;77.90;;;;;;4951059;28;20047;-74
2022/03/25 01:43:30;;;;;;;43.87;25.23;;;6.90;77.90;;;;;;4955875;28;20035;-74
2022/03/25 01:45:56;;;;;;;43.70;24.27;;;6.80;78.00;;;;;;4926053;28;20043;-73
2022/03/25 01:48:23;;;;;;;45.50;27.23;;;6.80;78.10;;;;;;4944071;28;20494;-74
2022/03/25 01:50:49;;;;;;;55.20;32.10;;;6.80;78.30;;;;;;4937696;28;20059;-75
2022/03/25 01:53:25;;;;;;;51.60;29.57;;;6.70;79.10;;;;;;4941883;29;20048;-74
2022/03/25 01:55:56;;;;;;;45.63;26.73;;;6.70;79.00;;;;;;4942126;29;20043;-74
2022/03/25 01:58:30;;;;;;;46.30;27.48;;;6.70;79.00;;;;;;4939138;29;20035;-74
2022/03/25 02:00:59;;;;;;;65.87;38.87;;;6.70;79.10;;;;;;4953741;28;20031;-74
2022/03/25 02:03:26;;;;;;;61.53;35.53;;;6.70;79.80;;;;;;4925293;29;20039;-74
2022/03/25 02:05:52;;;;;;;63.13;36.17;;;6.70;80.80;;;;;;4941025;28;20392;-74
2022/03/25 02:08:20;;;;;;;56.23;33.93;;;6.70;80.80;;;;;;4958451;28;20418;-74
2022/03/25 02:10:47;;;;;;;51.80;31.07;;;6.70;80.70;;;;;;4928205;29;20123;-75
2022/03/25 02:13:16;;;;;;;49.13;30.70;;;6.70;80.70;;;;;;4950880;28;20066;-74
2022/03/25 02:15:47;;;;;;;48.45;28.25;;;6.70;80.70;;;;;;4956948;28;20050;-74
2022/03/25 02:18:18;;;;;;;49.93;29.10;;;6.70;80.60;;;;;;4955506;29;20038;-74
2022/03/25 02:20:45;;;;;;;51.87;32.47;;;6.70;80.60;;;;;;4937491;29;20055;-74
2022/03/25 02:23:13;;;;;;;52.30;32.37;;;6.60;80.80;;;;;;4927685;29;20375;-74
2022/03/25 02:25:41;;;;;;;51.40;28.93;;;6.60;80.90;;;;;;4943900;29;20036;-74
2022/03/25 02:28:10;;;;;;;50.50;31.80;;;6.60;81.10;;;;;;4947181;29;20023;-74
2022/03/25 02:30:38;;;;;;;55.67;34.27;;;6.60;81.30;;;;;;4957653;28;20042;-74
2022/03/25 02:33:07;;;;;;;52.27;32.80;;;6.60;81.40;;;;;;4939583;29;20043;-75
2022/03/25 02:35:44;;;;;;;59.03;36.07;;;6.50;81.70;;;;;;4954956;29;20486;-74
2022/03/25 02:38:13;;;;;;;65.40;37.93;;;6.50;82.20;;;;;;4939303;29;20051;-73
2022/03/25 02:40:40;;;;;;;59.93;35.37;;;6.40;82.50;;;;;;4957286;28;20529;-73
2022/03/25 02:43:08;;;;;;;54.33;32.47;;;6.40;82.70;;;;;;4940733;29;20454;-73
2022/03/25 02:45:40;;;;;;;59.15;35.85;;;6.30;82.70;;;;;;4952866;28;20042;-73
2022/03/25 02:48:08;;;;;;;49.60;30.97;;;6.30;82.90;;;;;;4937418;29;20451;-73
2022/03/25 02:50:34;;;;;;;58.37;35.33;;;6.30;83.10;;;;;;4953708;29;20051;-74
2022/03/25 02:53:02;;;;;;;56.17;34.53;;;6.20;83.20;;;;;;4950639;29;20051;-74
2022/03/25 02:55:29;;;;;;;58.57;35.27;;;6.20;83.50;;;;;;4940311;29;20483;-74
2022/03/25 02:57:56;;;;;;;58.17;34.73;;;6.10;83.70;;;;;;4936509;29;20044;-74
2022/03/25 03:00:25;;;;;;;59.83;36.63;;;6.10;83.80;;;;;;4946907;29;20035;-74
2022/03/25 03:02:53;;;;;;;58.47;35.40;;;6.10;84.30;;;;;;4948363;28;20448;-74
2022/03/25 03:05:21;;;;;;;56.57;37.60;;;6.10;84.40;;;;;;4937823;29;20032;-74
2022/03/25 03:07:49;;;;;;;64.30;37.90;;;6.00;84.70;;;;;;4954769;28;20043;-74
2022/03/25 03:10:16;;;;;;;65.63;40.43;;;6.00;85.10;;;;;;4936172;29;20615;-74
2022/03/25 03:12:42;;;;;;;66.57;40.50;;;6.00;85.50;;;;;;4942338;29;20040;-74
2022/03/25 03:15:10;;;;;;;63.77;38.00;;;6.00;85.80;;;;;;4935551;29;20046;-74
2022/03/25 03:17:37;;;;;;;59.03;36.10;;;6.00;85.90;;;;;;4908860;29;20047;-74
2022/03/25 03:20:05;;;;;;;64.83;38.57;;;5.90;86.10;;;;;;4917731;29;20055;-74
2022/03/25 03:22:31;;;;;;;70.23;44.83;;;5.90;86.50;;;;;;4931000;29;20387;-74
2022/03/25 03:24:57;;;;;;;74.40;45.03;;;5.90;87.50;;;;;;4939166;29;20035;-73
2022/03/25 03:27:25;;;;;;;67.23;41.87;;;5.90;87.80;;;;;;4939221;29;20387;-73
2022/03/25 03:29:51;;;;;;;72.60;44.23;;;5.90;88.10;;;;;;4943065;29;20490;-74
2022/03/25 03:32:18;;;;;;;72.50;42.77;;;5.90;88.60;;;;;;4934896;29;20050;-74
2022/03/25 03:34:44;;;;;;;78.33;48.43;;;5.80;88.90;;;;;;4956670;28;20044;-74
2022/03/25 03:37:11;;;;;;;73.30;46.43;;;5.80;89.20;;;;;;4944169;29;20039;-73
2022/03/25 03:39:37;;;;;;;80.43;48.23;;;5.80;90.10;;;;;;4943774;29;20059;-74
2022/03/25 03:42:04;;;;;;;73.17;46.03;;;5.70;90.30;;;;;;4943076;29;20042;-74
2022/03/25 03:44:30;;;;;;;80.27;47.57;;;5.70;90.60;;;;;;4910402;29;20361;-73
2022/03/25 03:46:57;;;;;;;68.83;42.13;;;5.70;90.80;;;;;;4943510;29;20042;-73
2022/03/25 03:49:24;;;;;;;70.57;42.53;;;5.60;90.90;;;;;;4946078;29;20770;-74
2022/03/25 03:51:50;;;;;;;73.97;44.17;;;5.60;91.10;;;;;;4935725;29;20379;-74
2022/03/25 03:54:17;;;;;;;76.30;45.57;;;5.50;91.30;;;;;;4942062;28;20054;-73
2022/03/25 03:56:43;;;;;;;69.20;42.47;;;5.50;91.60;;;;;;4955977;28;20056;-73
2022/03/25 03:59:10;;;;;;;66.80;40.83;;;5.50;91.70;;;;;;4947345;28;20066;-73
2022/03/25 04:01:36;;;;;;;63.88;40.35;;;5.40;91.80;;;;;;4940724;28;20039;-74
2022/03/25 04:04:03;;;;;;;60.70;36.30;;;5.40;92.00;;;;;;4951650;28;20054;-73
2022/03/25 04:06:29;;;;;;;70.20;42.40;;;5.30;92.20;;;;;;4943984;28;20041;-73
2022/03/25 04:08:56;;;;;;;70.83;44.17;;;5.30;92.40;;;;;;4950774;28;20036;-73
2022/03/25 04:11:22;;;;;;;76.03;45.67;;;5.20;92.70;;;;;;4940171;28;20058;-73
2022/03/25 04:13:48;;;;;;;76.87;44.60;;;5.20;93.00;;;;;;4960625;28;20050;-74
2022/03/25 04:16:15;;;;;;;71.63;42.87;;;5.10;93.20;;;;;;4951423;28;20034;-74
2022/03/25 04:18:42;;;;;;;74.10;43.50;;;5.10;93.60;;;;;;4943549;28;20046;-74
2022/03/25 04:21:08;;;;;;;78.73;45.80;;;5.00;93.90;;;;;;4922497;28;20104;-74
2022/03/25 04:23:35;;;;;;;71.27;43.83;;;5.00;94.10;;;;;;4951749;28;20066;-73
2022/03/25 04:26:02;;;;;;;66.07;39.77;;;4.90;94.30;;;;;;4951525;28;20470;-73
2022/03/25 04:28:29;;;;;;;71.87;43.30;;;5.00;94.50;;;;;;4948732;28;20051;-73
2022/03/25 04:30:55;;;;;;;68.77;41.83;;;4.90;94.80;;;;;;4959870;28;20480;-73
2022/03/25 04:33:21;;;;;;;70.07;42.37;;;4.90;94.90;;;;;;4950522;28;20047;-73
2022/03/25 04:35:48;;;;;;;62.10;38.47;;;4.90;95.20;;;;;;4952890;28;20035;-74
2022/03/25 04:38:15;;;;;;;69.57;38.63;;;5.00;95.20;;;;;;4924879;28;20058;-73
2022/03/25 04:40:42;;;;;;;75.03;42.30;;;5.00;95.30;;;;;;4949921;28;20066;-73
2022/03/25 04:43:08;;;;;;;69.43;40.20;;;5.00;95.60;;;;;;4937430;28;20672;-73
2022/03/25 04:45:35;;;;;;;73.50;42.13;;;5.00;95.80;;;;;;4939557;29;20054;-73
2022/03/25 04:48:03;;;;;;;69.27;39.57;;;5.00;96.20;;;;;;4943514;28;20657;-73
2022/03/25 04:50:30;;;;;;;67.57;41.67;;;5.00;96.00;;;;;;4958683;28;20050;-73
2022/03/25 04:52:57;;;;;;;82.83;51.73;;;5.00;96.20;;;;;;4941457;28;20059;-73
2022/03/25 04:55:24;;;;;;;76.83;47.07;;;5.00;97.00;;;;;;4941443;28;20046;-73
2022/03/25 04:57:50;;;;;;;72.57;43.40;;;5.00;97.20;;;;;;4923328;28;20045;-73
2022/03/25 05:00:17;;;;;;;75.53;43.27;;;5.00;97.30;;;;;;4955238;28;20039;-73
2022/03/25 05:02:44;;;;;;;74.20;45.23;;;5.00;97.50;;;;;;4955324;28;20034;-74
2022/03/25 05:05:12;;;;;;;72.63;42.97;;;5.00;97.70;;;;;;4955472;28;20023;-74
2022/03/25 05:07:44;;;;;;;72.67;43.20;;;5.00;97.80;;;;;;4949094;28;20032;-74
2022/03/25 05:10:13;;;;;;;69.65;40.78;;;4.90;98.00;;;;;;4945374;28;20055;-73
2022/03/25 05:12:40;;;;;;;89.00;52.07;;;5.00;98.10;;;;;;4931156;28;20054;-73
2022/03/25 05:15:07;;;;;;;74.93;45.67;;;5.00;98.30;;;;;;4953342;28;20399;-74
2022/03/25 05:17:34;;;;;;;74.93;45.30;;;5.00;98.60;;;;;;4944646;28;20058;-73
2022/03/25 05:20:05;;;;;;;85.17;50.17;;;4.90;99.00;;;;;;4948698;28;20465;-74
2022/03/25 05:22:31;;;;;;;79.40;48.77;;;4.90;99.30;;;;;;4932912;28;20031;-74
2022/03/25 05:25:00;;;;;;;84.87;49.00;;;4.90;99.50;;;;;;4946221;28;20391;-74
2022/03/25 05:27:27;;;;;;;90.60;55.40;;;4.90;99.60;;;;;;4919514;28;20043;-74
2022/03/25 05:29:53;;;;;;;104.63;62.63;;;4.90;99.90;;;;;;4939621;28;20046;-74
2022/03/25 05:32:19;;;;;;;92.33;56.43;;;5.00;99.90;;;;;;4944211;28;20028;-75
2022/03/25 05:34:46;;;;;;;79.47;49.70;;;5.00;99.90;;;;;;4953009;28;20430;-74
2022/03/25 05:37:12;;;;;;;80.70;47.63;;;5.00;99.90;;;;;;4951217;28;20046;-74
2022/03/25 05:39:39;;;;;;;96.40;57.93;;;4.90;99.90;;;;;;4936034;28;20062;-74
2022/03/25 05:42:05;;;;;;;109.60;63.73;;;4.90;99.90;;;;;;4947206;28;20023;-74
2022/03/25 05:44:32;;;;;;;79.57;49.80;;;5.00;99.90;;;;;;4951428;28;20044;-72
2022/03/25 05:46:58;;;;;;;85.60;51.70;;;4.90;99.90;;;;;;4945804;28;20046;-72
2022/03/25 05:49:24;;;;;;;89.07;52.90;;;4.90;99.90;;;;;;4946509;28;20049;-72
2022/03/25 05:51:51;;;;;;;87.50;54.73;;;4.90;99.90;;;;;;4947606;28;20472;-73
2022/03/25 05:54:17;;;;;;;82.13;48.07;;;4.90;99.90;;;;;;4953559;28;20059;-73
2022/03/25 05:56:44;;;;;;;82.67;51.30;;;4.90;99.90;;;;;;4933398;29;20527;-73
2022/03/25 05:59:10;;;;;;;90.00;52.97;;;4.90;99.90;;;;;;4955558;28;20043;-74
2022/03/25 06:01:37;;;;;;;85.27;51.97;;;4.80;99.90;;;;;;4954657;28;20046;-74
2022/03/25 06:04:03;;;;;;;82.37;49.90;;;4.80;99.90;;;;;;4950736;29;20047;-74
2022/03/25 06:06:29;;;;;;;81.87;47.93;;;4.80;99.90;;;;;;4967460;28;20038;-74
2022/03/25 06:08:56;;;;;;;83.80;50.67;;;4.90;99.90;;;;;;4956018;29;20044;-74
2022/03/25 06:11:23;;;;;;;84.90;48.93;;;4.90;99.90;;;;;;4963848;28;20545;-74
2022/03/25 06:13:49;;;;;;;77.73;45.33;;;5.00;99.90;;;;;;4933034;29;20047;-74
2022/03/25 06:16:17;;;;;;;84.87;49.43;;;5.10;99.90;;;;;;4955449;29;20035;-74
2022/03/25 06:18:43;;;;;;;77.47;46.37;;;5.20;99.90;;;;;;4931296;29;20386;-74
2022/03/25 06:21:12;;;;;;;92.17;52.83;;;5.40;99.90;;;;;;4954649;29;20038;-73
2022/03/25 06:23:39;;;;;;;79.67;49.03;;;5.50;99.90;;;;;;4926584;29;20051;-74
2022/03/25 06:26:07;;;;;;;95.57;54.60;;;5.60;99.90;;;;;;4943623;29;20039;-74
2022/03/25 06:28:33;;;;;;;88.93;54.13;;;5.70;99.90;;;;;;4951082;29;20044;-73
2022/03/25 06:31:00;;;;;;;81.70;49.73;;;5.80;99.90;;;;;;4954559;29;20043;-73
2022/03/25 06:33:26;;;;;;;79.50;48.63;;;5.90;99.90;;;;;;4931629;29;20039;-73
2022/03/25 06:35:53;;;;;;;76.30;48.27;;;6.00;99.90;;;;;;4950704;29;20039;-72
2022/03/25 06:38:19;;;;;;;79.00;48.93;;;6.10;99.90;;;;;;4955218;29;20035;-73
2022/03/25 06:40:45;;;;;;;84.20;52.60;;;6.30;99.90;;;;;;4954587;29;20044;-73
2022/03/25 06:43:12;;;;;;;83.33;51.23;;;6.40;99.90;;;;;;4954672;29;20043;-74
2022/03/25 06:45:38;;;;;;;80.68;52.03;;;6.60;99.90;;;;;;4954333;29;20096;-73
2022/03/25 06:48:05;;;;;;;76.73;49.53;;;6.70;99.90;;;;;;4950972;29;20044;-73
2022/03/25 06:50:32;;;;;;;82.93;50.73;;;6.90;99.90;;;;;;4947873;29;20035;-73
2022/03/25 06:53:01;;;;;;;78.43;50.93;;;7.00;99.90;;;;;;4954342;28;20051;-73
2022/03/25 06:55:28;;;;;;;75.45;47.15;;;7.10;99.90;;;;;;4954633;29;20039;-73
2022/03/25 06:57:55;;;;;;;75.85;49.28;;;7.20;99.90;;;;;;4947437;29;20054;-72
2022/03/25 07:00:22;;;;;;;78.07;48.20;;;7.40;99.90;;;;;;4949352;29;20051;-73
2022/03/25 07:02:51;;;;;;;84.27;52.17;;;7.50;99.90;;;;;;4912469;29;20040;-73
2022/03/25 07:05:18;;;;;;;78.93;50.30;;;7.50;99.90;;;;;;4954583;29;20047;-73
2022/03/25 07:07:45;;;;;;;82.82;53.78;;;7.70;99.90;;;;;;4950384;29;20047;-73
2022/03/25 07:10:13;;;;;;;82.32;54.63;;;7.80;99.90;;;;;;4950504;29;20039;-73
2022/03/25 07:12:42;;;;;;;87.57;55.33;;;7.90;99.90;;;;;;4953611;29;20046;-73
2022/03/25 07:15:09;;;;;;;86.75;56.70;;;8.00;99.90;;;;;;4940428;29;20039;-73
2022/03/25 07:17:41;;;;;;;85.82;53.40;;;8.10;99.90;;;;;;4952548;29;20035;-72
2022/03/25 07:20:14;;;;;;;81.57;53.42;;;8.30;99.90;;;;;;4934615;29;20047;-73
2022/03/25 07:22:46;;;;;;;84.60;57.38;;;8.40;99.90;;;;;;4953492;28;20038;-73
2022/03/25 07:25:13;;;;;;;92.50;60.67;;;8.60;99.90;;;;;;4942469;29;20391;-72
2022/03/25 07:27:41;;;;;;;82.88;55.55;;;8.70;99.90;;;;;;4951828;29;20028;-73
2022/03/25 07:30:09;;;;;;;81.65;54.72;;;8.90;99.90;;;;;;4953925;29;20475;-73
2022/03/25 07:32:35;;;;;;;91.47;60.67;;;9.00;99.90;;;;;;4947081;29;20459;-73
2022/03/25 07:35:02;;;;;;;84.75;55.75;;;9.20;99.90;;;;;;4942152;29;20035;-73
2022/03/25 07:37:28;;;;;;;83.68;59.25;;;9.30;99.90;;;;;;4942420;29;20104;-73
2022/03/25 07:39:55;;;;;;;80.75;57.50;;;9.40;99.90;;;;;;4954337;29;20399;-73
2022/03/25 07:42:21;;;;;;;80.07;54.40;;;9.60;99.90;;;;;;4953905;29;20019;-73
2022/03/25 07:44:48;;;;;;;82.45;55.58;;;9.70;99.80;;;;;;4944994;28;20035;-73
2022/03/25 07:47:14;;;;;;;84.43;58.13;;;9.80;99.40;;;;;;4946421;29;20498;-72
2022/03/25 07:49:42;;;;;;;72.10;50.00;;;10.00;99.10;;;;;;4953986;28;20039;-72
2022/03/25 07:52:10;;;;;;;84.43;57.25;;;10.10;98.80;;;;;;4953974;29;20356;-72
2022/03/25 07:54:38;;;;;;;76.57;53.55;;;10.30;98.30;;;;;;4952865;28;20066;-73
2022/03/25 07:57:05;;;;;;;87.53;59.08;;;10.40;97.80;;;;;;4940852;29;20476;-73
2022/03/25 07:59:31;;;;;;;83.10;58.10;;;10.50;96.80;;;;;;4948990;29;20035;-73
2022/03/25 08:01:58;;;;;;;84.88;56.97;;;10.60;96.90;;;;;;4926086;29;20058;-73
2022/03/25 08:04:24;;;;;;;78.07;55.60;;;10.60;96.30;;;;;;4940581;29;20806;-75
2022/03/25 08:06:51;;;;;;;81.97;57.92;;;10.70;96.00;;;;;;4952970;29;20031;-77
2022/03/25 08:09:18;;;;;;;87.22;59.53;;;10.70;95.60;;;;;;4949082;29;20038;-76
2022/03/25 08:11:48;;;;;;;77.07;55.33;;;10.80;95.30;;;;;;4943832;29;20050;-76
2022/03/25 08:14:16;;;;;;;73.85;53.03;;;10.90;95.20;;;;;;4952817;29;20042;-77
2022/03/25 08:16:45;;;;;;;81.63;56.50;;;11.00;94.70;;;;;;4953690;29;20038;-76
2022/03/25 08:19:12;;;;;;;79.75;56.70;;;11.10;94.40;;;;;;4937037;29;20039;-78
2022/03/25 08:21:39;;;;;;;79.95;55.05;;;11.30;94.20;;;;;;4923501;29;20035;-77
2022/03/25 08:29:39;;;;;;;83.10;58.35;;;11.60;93.30;;;;;;4945114;29;20042;-74
2022/03/25 08:32:06;;;;;;;81.97;59.05;;;11.70;93.20;;;;;;4953276;29;20058;-74
2022/03/25 08:34:32;;;;;;;84.68;59.95;;;11.80;93.10;;;;;;4929204;29;20379;-73
2022/03/25 08:36:59;;;;;;;85.63;59.03;;;11.90;92.40;;;;;;4952460;29;20042;-73
2022/03/25 08:39:25;;;;;;;82.80;59.13;;;12.00;92.20;;;;;;4925198;29;20050;-74
2022/03/25 08:41:52;;;;;;;75.47;54.33;;;12.10;91.90;;;;;;4939847;29;20050;-74
2022/03/25 08:44:18;;;;;;;78.05;56.85;;;12.20;91.50;;;;;;4942305;29;20387;-74
2022/03/25 08:46:45;;;;;;;72.30;51.05;;;12.30;91.30;;;;;;4923458;29;20054;-73
2022/03/25 08:49:11;;;;;;;78.10;55.60;;;12.40;91.20;;;;;;4951836;29;20054;-74
2022/03/25 08:51:39;;;;;;;76.22;55.13;;;12.50;91.00;;;;;;4952336;28;20042;-74
2022/03/25 08:54:06;;;;;;;75.85;54.38;;;12.60;90.40;;;;;;4936633;28;20814;-73
2022/03/25 08:56:34;;;;;;;71.25;50.55;;;12.70;90.10;;;;;;4947523;28;20051;-75
2022/03/25 08:59:01;;;;;;;70.72;47.40;;;12.80;89.70;;;;;;4952629;28;20034;-74
2022/03/25 09:01:28;;;;;;;65.28;46.58;;;12.90;89.60;;;;;;4943791;28;20031;-74
2022/03/25 09:03:55;;;;;;;69.72;50.03;;;13.20;89.50;;;;;;4952206;28;20031;-73
2022/03/25 09:06:21;;;;;;;76.57;52.22;;;13.30;88.60;;;;;;4939095;29;20476;-74
2022/03/25 09:08:48;;;;;;;67.82;48.05;;;13.50;87.50;;;;;;4954904;28;20036;-74
2022/03/25 09:11:14;;;;;;;71.07;48.90;;;13.60;86.20;;;;;;4951540;28;20039;-73
2022/03/25 09:13:41;;;;;;;72.90;52.05;;;13.70;85.50;;;;;;4930898;28;20036;-74
2022/03/25 09:16:07;;;;;;;71.55;49.00;;;13.80;83.10;;;;;;4937950;28;20035;-73
2022/03/25 09:18:34;;;;;;;77.55;50.67;;;13.80;82.50;;;;;;4932029;29;20043;-74
2022/03/25 09:21:00;;;;;;;73.97;50.97;;;13.80;81.70;;;;;;4939708;28;20035;-74
2022/03/25 09:23:27;;;;;;;78.43;54.88;;;13.80;81.70;;;;;;4925845;29;20055;-74
2022/03/25 09:25:53;;;;;;;72.40;50.53;;;13.80;81.20;;;;;;4936544;28;20494;-73
2022/03/25 09:28:20;;;;;;;76.10;53.85;;;13.80;81.70;;;;;;4945219;28;20028;-73
2022/03/25 09:30:46;;;;;;;72.88;52.75;;;13.90;81.40;;;;;;4946754;28;20035;-73
2022/03/25 09:33:12;;;;;;;77.53;53.83;;;14.00;81.30;;;;;;4929073;28;20569;-73
2022/03/25 09:35:42;;;;;;;70.15;48.75;;;14.10;80.90;;;;;;4918900;28;20055;-73
2022/03/25 09:38:09;;;;;;;74.97;53.63;;;14.20;80.30;;;;;;4947419;28;20042;-73
2022/03/25 09:40:36;;;;;;;72.00;51.67;;;14.30;79.50;;;;;;4953553;28;20047;-73
2022/03/25 09:43:02;;;;;;;63.97;45.70;;;14.40;78.20;;;;;;4946436;28;20023;-74
2022/03/25 09:45:30;;;;;;;69.90;50.45;;;14.40;77.50;;;;;;4949960;28;20054;-73
2022/03/25 09:47:57;;;;;;;69.32;48.60;;;14.50;77.00;;;;;;4942596;28;20038;-74
2022/03/25 09:50:25;;;;;;;69.32;51.55;;;14.60;76.10;;;;;;4936656;28;20051;-73
2022/03/25 09:52:52;;;;;;;65.20;46.05;;;14.60;76.10;;;;;;4949953;28;20379;-73
2022/03/25 09:55:19;;;;;;;71.65;49.55;;;14.70;76.30;;;;;;4949377;29;20505;-74
2022/03/25 09:57:46;;;;;;;65.32;46.78;;;14.80;76.00;;;;;;4922169;29;20046;-73
2022/03/25 10:00:18;;;;;;;67.43;48.97;;;15.00;76.00;;;;;;4949005;29;20477;-73
2022/03/25 10:02:45;;;;;;;75.13;54.90;;;15.10;74.90;;;;;;4932003;29;20042;-73
2022/03/25 10:05:22;;;;;;;63.60;45.40;;;15.10;74.40;;;;;;4936240;29;20039;-73
2022/03/25 10:07:50;;;;;;;70.85;51.25;;;15.20;74.80;;;;;;4940353;29;20117;-73
2022/03/25 10:10:22;;;;;;;65.78;47.13;;;15.30;74.60;;;;;;4935229;29;20031;-73
2022/03/25 10:13:02;;;;;;;55.88;41.45;;;15.40;74.60;;;;;;4944242;29;20487;-73
2022/03/25 10:15:31;;;;;;;66.22;45.28;;;15.60;74.60;;;;;;4949194;29;20024;-73
2022/03/25 10:18:01;;;;;;;70.38;49.72;;;15.80;74.40;;;;;;4947516;29;20043;-73
2022/03/25 10:20:41;;;;;;;67.15;48.63;;;15.90;73.60;;;;;;4951102;29;20073;-73
2022/03/25 10:23:13;;;;;;;65.22;49.28;;;16.10;73.30;;;;;;4939833;29;20513;-73
2022/03/25 10:26:00;;;;;;;65.63;47.80;;;16.30;72.60;;;;;;4944927;29;20035;-73
2022/03/25 10:28:39;;;;;;;59.42;42.88;;;16.50;72.00;;;;;;4953037;28;20036;-73
2022/03/25 10:31:19;;;;;;;55.33;40.75;;;16.70;71.60;;;;;;4953722;29;20039;-74
2022/03/25 10:33:54;;;;;;;70.15;51.08;;;17.00;71.80;;;;;;4954889;28;20035;-73
2022/03/25 10:36:23;;;;;;;52.25;39.08;;;17.30;69.60;;;;;;4956323;28;20031;-73
2022/03/25 10:38:50;;;;;;;60.15;44.97;;;17.40;69.70;;;;;;4954760;29;20042;-73
2022/03/25 10:41:20;;;;;;;54.33;41.92;;;17.60;69.40;;;;;;4954885;29;20036;-73
2022/03/25 10:43:53;;;;;;;49.38;37.20;;;17.80;69.10;;;;;;4947894;29;20514;-74
2022/03/25 10:46:28;;;;;;;57.63;43.97;;;17.90;68.60;;;;;;4954326;28;20374;-73
2022/03/25 10:48:54;;;;;;;61.50;42.97;;;18.20;66.90;;;;;;4954850;29;20035;-73
2022/03/25 10:51:21;;;;;;;52.35;40.45;;;18.40;66.50;;;;;;4950536;29;20378;-74
2022/03/25 10:53:56;;;;;;;54.13;39.05;;;18.60;66.00;;;;;;4940047;29;20043;-74
2022/03/25 10:56:22;;;;;;;44.60;35.33;;;18.90;65.50;;;;;;4918773;29;20035;-73
2022/03/25 10:58:55;;;;;;;52.35;39.13;;;19.30;65.10;;;;;;4935220;29;20062;-73
2022/03/25 11:01:22;;;;;;;50.50;40.38;;;19.60;63.30;;;;;;4921173;29;20051;-73
2022/03/25 11:03:50;;;;;;;47.17;37.80;;;19.80;62.40;;;;;;4920283;29;20039;-73
2022/03/25 11:06:18;;;;;;;47.75;38.05;;;20.10;62.50;;;;;;4919644;29;20036;-73
2022/03/25 11:08:46;;;;;;;49.85;41.10;;;20.40;61.90;;;;;;4918548;29;20605;-73
2022/03/25 11:11:15;;;;;;;44.50;37.42;;;20.80;61.00;;;;;;4934109;29;20036;-73
2022/03/25 11:13:44;;;;;;;53.63;39.90;;;21.10;60.20;;;;;;4917753;29;20039;-74
2022/03/25 11:16:18;;;;;;;46.90;37.53;;;21.30;59.80;;;;;;4917762;29;20032;-73
2022/03/25 11:18:45;;;;;;;49.10;40.80;;;21.50;58.80;;;;;;4937860;29;20379;-73
2022/03/25 11:21:13;;;;;;;43.13;34.90;;;21.60;57.40;;;;;;4943512;29;20479;-74
2022/03/25 11:23:47;;;;;;;42.92;36.38;;;21.60;57.50;;;;;;4921377;29;20063;-74
2022/03/25 11:26:25;;;;;;;39.00;32.33;;;21.80;55.50;;;;;;4940289;29;20031;-73
2022/03/25 11:28:56;;;;;;;42.90;31.83;;;22.00;55.30;;;;;;4924329;29;20352;-74
2022/03/25 11:31:24;;;;;;;40.03;33.83;;;22.20;54.30;;;;;;4936518;29;20035;-73
2022/03/25 11:34:12;;;;;;;41.42;34.47;;;22.30;53.50;;;;;;4920340;29;20032;-73
2022/03/25 11:36:45;;;;;;;42.75;36.28;;;22.60;54.20;;;;;;4924989;29;20051;-74
2022/03/25 11:39:24;;;;;;;46.25;36.15;;;22.90;53.10;;;;;;4937619;28;20027;-77
2022/03/25 11:41:56;;;;;;;41.08;35.38;;;22.90;52.50;;;;;;4917694;29;20034;-74
2022/03/25 11:44:25;;;;;;;50.50;37.72;;;23.00;52.50;;;;;;4906688;29;20078;-74
2022/03/25 11:47:13;;;;;;;39.92;33.10;;;23.30;50.70;;;;;;4936492;29;20108;-74
2022/03/25 11:49:39;;;;;;;51.15;38.38;;;23.40;50.60;;;;;;4938377;29;20031;-74
2022/03/25 11:52:26;;;;;;;39.50;32.53;;;23.60;49.20;;;;;;4932748;29;20042;-74
2022/03/25 11:55:00;;;;;;;55.40;47.35;;;23.80;49.40;;;;;;4942436;28;20039;-75
2022/03/25 11:57:34;;;;;;;45.28;36.55;;;24.00;48.80;;;;;;4945290;28;20027;-74
2022/03/25 12:00:10;;;;;;;42.45;32.63;;;24.20;47.20;;;;;;4950363;28;20039;-75
2022/03/25 12:02:40;;;;;;;42.47;32.42;;;24.20;46.80;;;;;;4949440;28;20050;-74
2022/03/25 12:05:25;;;;;;;40.80;33.13;;;24.40;46.50;;;;;;4937713;28;20031;-74
2022/03/25 12:08:28;;;;;;;46.55;37.30;;;24.60;45.70;;;;;;4917639;29;20035;-74
2022/03/25 12:10:56;;;;;;;55.85;43.95;;;24.90;45.80;;;;;;4896982;29;20113;-74
2022/03/25 12:13:43;;;;;;;48.30;39.70;;;25.10;46.60;;;;;;4931067;29;20048;-74
2022/03/25 12:16:10;;;;;;;44.50;33.90;;;24.90;47.00;;;;;;4937175;28;20541;-74
2022/03/25 12:18:46;;;;;;;40.88;34.00;;;24.80;46.50;;;;;;4948407;28;20058;-74
2022/03/25 12:21:21;;;;;;;37.75;33.00;;;24.80;45.60;;;;;;4939949;28;20050;-74
2022/03/25 12:23:55;;;;;;;42.25;35.65;;;24.90;45.70;;;;;;4951343;28;20039;-74
2022/03/25 12:26:35;;;;;;;37.10;32.40;;;25.10;45.00;;;;;;4950117;28;20035;-75
2022/03/25 12:29:05;;;;;;;37.72;32.80;;;25.20;45.40;;;;;;4955746;28;20374;-74
2022/03/25 12:31:32;;;;;;;40.45;34.75;;;25.60;45.60;;;;;;4936340;28;20043;-75
2022/03/25 12:34:00;;;;;;;40.80;33.58;;;25.80;43.80;;;;;;4959533;28;20490;-74
2022/03/25 12:36:42;;;;;;;45.25;33.25;;;25.70;44.00;;;;;;4946540;28;20027;-75
2022/03/25 12:39:14;;;;;;;39.33;33.22;;;25.80;44.40;;;;;;4949111;28;20032;-74
2022/03/25 12:41:47;;;;;;;37.20;33.13;;;25.90;43.40;;;;;;4948566;28;20031;-73
2022/03/25 12:44:13;;;;;;;34.05;27.45;;;25.80;43.00;;;;;;4956589;28;20471;-74